Marionville, Missouri
Current Conditions -  °F | °C
As of 4:52 PM on Monday 22 Dec 2014 (Local Time) from KSGF Reporting Station
Light Rain Light Rain  
Wind Chill:   Ceiling: 1300
Heat Index:   Visibility: 8mi
Dew Point:   Wind: 10mph
Humidity: 93%   Direction: 200°SSW
Pressure: 29.49"   Gusts: NA
Location:  37°N, 93.64°W
Report Text: KSGF 222252Z 20009KT 8SM -RA SCT007 BKN013 OVC036 09/08 A2949 RMK AO2 SLP988 P0001 T00940083
Loading
Personal Weather Stations






























Interactive Weather Map New forecast layout! Learn more

10-Day Weather Forecast

Advertisements
Track Severe Weather on mobile